Time;durP1;ratioP1;P1;durP2;ratioP2;P2;SDS_P1;SDS_P2;PMS_P1;PMS_P2;Temp;Humidity;BMP_temperature;BMP_pressure;BME280_temperature;BME280_humidity;BME280_pressure;Samples;Min_cycle;Max_cycle;Signal;HPM_P1;HPM_P2
2024/01/21 00:00:54;;;;;;;17.35;10.90;;;;;;;;;;5047691;28;20024;-74
2024/01/21 00:03:20;;;;;;;18.17;10.93;;;;;;;;;;5049162;28;20013;-74
2024/01/21 00:05:46;;;;;;;16.35;11.23;;;;;;;;;;5047563;28;20043;-74
2024/01/21 00:08:12;;;;;;;16.33;11.43;;;;;;;;;;5048989;28;20017;-74
2024/01/21 00:10:38;;;;;;;15.38;10.80;;;;;;;;;;5047784;28;20029;-74
2024/01/21 00:13:04;;;;;;;15.25;10.70;;;;;;;;;;5047801;28;20045;-74
2024/01/21 00:15:30;;;;;;;17.88;11.68;;;;;;;;;;5048019;28;20432;-74
2024/01/21 00:17:56;;;;;;;16.75;10.70;;;;;;;;;;5047526;28;20112;-74
2024/01/21 00:20:22;;;;;;;15.48;10.80;;;;;;;;;;5048963;28;20027;-74
2024/01/21 00:22:48;;;;;;;16.70;11.00;;;;;;;;;;5047421;28;20272;-74
2024/01/21 00:25:14;;;;;;;17.20;11.15;;;;;;;;;;5048766;28;20047;-74
2024/01/21 00:27:40;;;;;;;16.10;11.02;;;;;;;;;;5048186;28;20099;-74
2024/01/21 00:30:06;;;;;;;13.73;9.98;;;;;;;;;;5047242;28;20108;-74
2024/01/21 00:32:32;;;;;;;14.77;10.38;;;;;;;;;;5048302;28;20099;-74
2024/01/21 00:34:58;;;;;;;16.33;10.90;;;;;;;;;;5046917;28;20120;-74
2024/01/21 00:37:24;;;;;;;15.75;11.38;;;;;;;;;;5046919;28;20013;-74
2024/01/21 00:39:50;;;;;;;17.50;11.40;;;;;;;;;;5046173;28;20032;-74
2024/01/21 00:42:16;;;;;;;17.38;12.70;;;;;;;;;;5046968;28;20108;-74
2024/01/21 00:44:42;;;;;;;18.83;12.30;;;;;;;;;;5042544;28;20022;-74
2024/01/21 00:47:08;;;;;;;17.38;12.35;;;;;;;;;;5044645;28;20015;-74
2024/01/21 00:49:34;;;;;;;17.77;11.32;;;;;;;;;;5043638;28;20021;-74
2024/01/21 00:52:00;;;;;;;17.58;11.77;;;;;;;;;;5044567;28;20013;-74
2024/01/21 00:54:26;;;;;;;17.95;11.35;;;;;;;;;;5047037;28;20369;-74
2024/01/21 00:56:52;;;;;;;18.02;12.18;;;;;;;;;;5043698;28;20449;-74
2024/01/21 00:59:18;;;;;;;15.35;11.10;;;;;;;;;;5036843;28;20031;-74
2024/01/21 01:01:44;;;;;;;14.98;10.73;;;;;;;;;;5046571;28;20025;-74
2024/01/21 01:04:10;;;;;;;13.82;10.15;;;;;;;;;;5048585;28;20017;-74
2024/01/21 01:06:36;;;;;;;15.13;11.02;;;;;;;;;;5046483;28;20141;-74
2024/01/21 01:09:04;;;;;;;13.93;10.02;;;;;;;;;;5046007;28;20017;-74
2024/01/21 01:11:30;;;;;;;16.65;10.65;;;;;;;;;;5043897;28;20021;-74
2024/01/21 01:13:57;;;;;;;14.25;10.38;;;;;;;;;;5046848;28;20305;-74
2024/01/21 01:16:23;;;;;;;14.55;10.65;;;;;;;;;;5046773;28;20017;-74
2024/01/21 01:18:49;;;;;;;14.05;10.00;;;;;;;;;;5047927;28;20264;-74
2024/01/21 01:21:15;;;;;;;13.90;9.68;;;;;;;;;;5047748;28;20013;-74
2024/01/21 01:23:41;;;;;;;13.85;9.90;;;;;;;;;;5047826;28;20527;-74
2024/01/21 01:26:07;;;;;;;15.38;10.18;;;;;;;;;;5037845;28;20014;-74
2024/01/21 01:28:34;;;;;;;13.68;10.02;;;;;;;;;;5037447;28;20064;-74
2024/01/21 01:31:00;;;;;;;13.15;9.52;;;;;;;;;;5045038;28;20200;-74
2024/01/21 01:33:26;;;;;;;12.75;9.32;;;;;;;;;;5047907;28;20501;-74
2024/01/21 01:35:52;;;;;;;11.63;8.52;;;;;;;;;;5047530;28;20013;-74
2024/01/21 01:38:18;;;;;;;11.80;9.15;;;;;;;;;;5046626;28;20021;-74
2024/01/21 01:40:44;;;;;;;12.65;9.00;;;;;;;;;;5046453;28;20108;-74
2024/01/21 01:43:10;;;;;;;13.23;9.48;;;;;;;;;;5047976;28;20100;-74
2024/01/21 01:45:36;;;;;;;10.77;8.52;;;;;;;;;;5047921;28;20071;-74
2024/01/21 01:48:03;;;;;;;11.38;8.13;;;;;;;;;;5047475;28;20078;-74
2024/01/21 01:50:29;;;;;;;10.88;8.38;;;;;;;;;;5047934;28;20052;-74
2024/01/21 01:52:56;;;;;;;12.05;8.35;;;;;;;;;;5050051;28;20839;-74
2024/01/21 01:55:22;;;;;;;10.45;7.82;;;;;;;;;;5050486;28;20113;-74
2024/01/21 01:57:48;;;;;;;10.27;7.68;;;;;;;;;;5049480;28;20527;-74
2024/01/21 02:00:15;;;;;;;11.25;8.30;;;;;;;;;;5051080;28;20028;-73
2024/01/21 02:02:41;;;;;;;11.35;8.57;;;;;;;;;;5051137;28;20401;-74
2024/01/21 02:05:08;;;;;;;12.07;9.00;;;;;;;;;;5050128;28;20024;-74
2024/01/21 02:07:34;;;;;;;11.23;8.52;;;;;;;;;;5051021;28;20053;-74
2024/01/21 02:10:01;;;;;;;10.35;8.30;;;;;;;;;;5049798;28;20556;-74
2024/01/21 02:12:27;;;;;;;11.73;7.90;;;;;;;;;;5049755;28;20171;-74
2024/01/21 02:14:53;;;;;;;10.35;7.95;;;;;;;;;;5051104;28;20017;-75
2024/01/21 02:17:19;;;;;;;10.25;7.57;;;;;;;;;;5050975;28;20013;-74
2024/01/21 02:19:45;;;;;;;10.65;7.80;;;;;;;;;;5051357;28;20111;-74
2024/01/21 02:22:12;;;;;;;10.85;7.70;;;;;;;;;;5050376;28;20499;-74
2024/01/21 02:24:39;;;;;;;10.10;7.25;;;;;;;;;;5049728;28;20017;-74
2024/01/21 02:27:05;;;;;;;9.45;7.80;;;;;;;;;;5050749;28;20529;-75
2024/01/21 02:29:31;;;;;;;10.15;7.75;;;;;;;;;;5050681;28;20073;-74
2024/01/21 02:31:58;;;;;;;11.15;7.53;;;;;;;;;;5049092;28;20017;-74
2024/01/21 02:34:24;;;;;;;9.13;6.68;;;;;;;;;;5050872;28;20082;-75
2024/01/21 02:36:50;;;;;;;9.75;7.35;;;;;;;;;;5049034;28;20028;-74
2024/01/21 02:39:16;;;;;;;9.18;6.63;;;;;;;;;;5049414;28;20009;-74
2024/01/21 02:41:42;;;;;;;9.75;6.68;;;;;;;;;;5050382;28;20021;-74
2024/01/21 02:44:08;;;;;;;8.68;6.72;;;;;;;;;;5050858;28;20062;-74
2024/01/21 02:46:34;;;;;;;8.95;6.65;;;;;;;;;;5048969;28;20489;-74
2024/01/21 02:49:00;;;;;;;8.38;6.15;;;;;;;;;;5049039;28;20021;-74
2024/01/21 02:51:26;;;;;;;9.05;6.53;;;;;;;;;;5050127;28;20016;-74
2024/01/21 02:53:52;;;;;;;8.35;6.07;;;;;;;;;;5049525;28;20448;-74
2024/01/21 02:56:22;;;;;;;8.30;6.07;;;;;;;;;;5046162;28;20052;-75
2024/01/21 02:58:51;;;;;;;7.85;5.85;;;;;;;;;;5048982;28;20400;-74
2024/01/21 03:01:18;;;;;;;7.28;5.55;;;;;;;;;;5048547;28;20040;-74
2024/01/21 03:03:44;;;;;;;7.85;5.18;;;;;;;;;;5049400;28;20025;-74
2024/01/21 03:06:10;;;;;;;7.35;5.28;;;;;;;;;;5049990;28;20029;-74
2024/01/21 03:08:36;;;;;;;7.88;5.47;;;;;;;;;;5049966;28;20169;-75
2024/01/21 03:11:02;;;;;;;7.22;5.10;;;;;;;;;;5048318;28;20025;-74
2024/01/21 03:13:28;;;;;;;7.18;5.20;;;;;;;;;;5050201;28;20013;-74
2024/01/21 03:15:54;;;;;;;8.00;5.60;;;;;;;;;;5046978;28;20067;-74
2024/01/21 03:18:20;;;;;;;6.90;5.00;;;;;;;;;;5041124;28;20021;-74
2024/01/21 03:20:47;;;;;;;9.55;5.32;;;;;;;;;;5049695;28;20920;-75
2024/01/21 03:23:13;;;;;;;7.88;4.82;;;;;;;;;;5048527;28;20155;-74
2024/01/21 03:25:39;;;;;;;5.78;5.10;;;;;;;;;;5049481;28;20485;-74
2024/01/21 03:28:05;;;;;;;5.88;4.78;;;;;;;;;;5048469;28;20037;-74
2024/01/21 03:30:31;;;;;;;7.95;5.15;;;;;;;;;;5048296;28;20021;-74
2024/01/21 03:32:57;;;;;;;6.60;4.95;;;;;;;;;;5048352;28;20021;-74
2024/01/21 03:35:23;;;;;;;7.25;4.85;;;;;;;;;;5049766;28;20017;-74
2024/01/21 03:37:50;;;;;;;7.25;4.90;;;;;;;;;;5049568;28;20017;-74
2024/01/21 03:40:16;;;;;;;6.28;4.75;;;;;;;;;;5049013;28;20608;-74
2024/01/21 03:42:45;;;;;;;6.80;4.68;;;;;;;;;;5049291;28;20028;-74
2024/01/21 03:45:11;;;;;;;5.97;4.53;;;;;;;;;;5049160;28;20016;-75
2024/01/21 03:47:38;;;;;;;4.82;4.22;;;;;;;;;;5043701;28;20396;-74
2024/01/21 03:50:04;;;;;;;6.88;4.80;;;;;;;;;;5047743;28;20234;-74
2024/01/21 03:52:30;;;;;;;6.07;4.63;;;;;;;;;;5047774;28;20099;-74
2024/01/21 03:54:56;;;;;;;7.65;4.82;;;;;;;;;;5036793;28;20541;-74
2024/01/21 03:57:22;;;;;;;6.63;4.97;;;;;;;;;;5048468;28;20020;-74
2024/01/21 03:59:48;;;;;;;7.72;5.15;;;;;;;;;;5047540;28;20115;-74
2024/01/21 04:02:14;;;;;;;5.88;4.55;;;;;;;;;;5036789;28;20096;-74
2024/01/21 04:04:40;;;;;;;6.60;4.55;;;;;;;;;;5047850;28;20116;-74
2024/01/21 04:07:06;;;;;;;8.38;4.75;;;;;;;;;;5047028;28;20017;-74
2024/01/21 04:09:32;;;;;;;6.25;4.57;;;;;;;;;;5048846;28;20033;-75
2024/01/21 04:11:58;;;;;;;6.85;4.97;;;;;;;;;;5047514;28;20079;-74
2024/01/21 04:14:24;;;;;;;6.97;4.72;;;;;;;;;;5047475;28;20013;-75
2024/01/21 04:16:50;;;;;;;7.47;5.35;;;;;;;;;;5047341;28;20532;-74
2024/01/21 04:19:19;;;;;;;7.10;5.28;;;;;;;;;;5048555;28;20107;-74
2024/01/21 04:21:46;;;;;;;6.72;4.97;;;;;;;;;;5048888;28;20017;-75
2024/01/21 04:24:11;;;;;;;6.90;4.93;;;;;;;;;;5048558;28;20029;-75
2024/01/21 04:26:38;;;;;;;6.38;4.85;;;;;;;;;;5047178;28;20043;-74
2024/01/21 04:29:04;;;;;;;7.85;4.65;;;;;;;;;;5047336;28;20582;-74
2024/01/21 04:31:30;;;;;;;7.32;4.70;;;;;;;;;;5046912;28;20017;-74
2024/01/21 04:33:56;;;;;;;5.90;4.97;;;;;;;;;;5048555;28;20025;-74
2024/01/21 04:36:24;;;;;;;6.70;4.93;;;;;;;;;;5048370;28;20627;-74
2024/01/21 04:38:50;;;;;;;6.50;5.05;;;;;;;;;;5048479;28;20339;-74
2024/01/21 04:41:16;;;;;;;7.10;5.10;;;;;;;;;;5047191;28;20175;-75
2024/01/21 04:43:44;;;;;;;6.97;4.85;;;;;;;;;;5046939;28;20029;-74
2024/01/21 04:46:10;;;;;;;7.68;5.35;;;;;;;;;;5047064;28;20445;-74
2024/01/21 04:48:36;;;;;;;6.45;4.50;;;;;;;;;;5039138;28;20028;-74
2024/01/21 04:51:02;;;;;;;7.20;5.15;;;;;;;;;;5042209;28;20028;-74
2024/01/21 04:53:28;;;;;;;7.28;4.88;;;;;;;;;;5046902;28;20500;-74
2024/01/21 04:55:54;;;;;;;6.18;4.78;;;;;;;;;;5048105;28;20493;-74
2024/01/21 04:58:20;;;;;;;6.90;4.68;;;;;;;;;;5048221;28;20017;-74
2024/01/21 05:00:47;;;;;;;5.90;4.63;;;;;;;;;;5045582;28;20023;-74
2024/01/21 05:03:13;;;;;;;7.60;4.88;;;;;;;;;;5035662;28;20043;-74
2024/01/21 05:05:39;;;;;;;9.02;4.80;;;;;;;;;;5046557;28;20025;-74
2024/01/21 05:08:05;;;;;;;7.70;4.80;;;;;;;;;;5043672;28;20025;-74
2024/01/21 05:10:31;;;;;;;8.15;5.13;;;;;;;;;;5047853;28;20044;-74
2024/01/21 05:12:57;;;;;;;5.80;4.80;;;;;;;;;;5048091;28;20231;-74
2024/01/21 05:15:23;;;;;;;7.43;5.10;;;;;;;;;;5046241;28;20021;-74
2024/01/21 05:17:49;;;;;;;6.80;4.95;;;;;;;;;;5047976;28;20009;-74
2024/01/21 05:20:15;;;;;;;7.70;4.95;;;;;;;;;;5047693;28;20024;-74
2024/01/21 05:22:41;;;;;;;6.93;5.03;;;;;;;;;;5048339;28;20028;-75
2024/01/21 05:25:07;;;;;;;7.43;5.00;;;;;;;;;;5046580;28;20704;-74
2024/01/21 05:27:33;;;;;;;5.93;4.78;;;;;;;;;;5050479;28;20021;-76
2024/01/21 05:29:59;;;;;;;6.55;4.78;;;;;;;;;;5042054;28;20032;-74
2024/01/21 05:32:25;;;;;;;7.13;4.97;;;;;;;;;;5039033;28;20018;-74
2024/01/21 05:34:51;;;;;;;7.10;4.85;;;;;;;;;;5034456;28;20045;-74
2024/01/21 05:37:17;;;;;;;7.60;4.88;;;;;;;;;;5050105;28;20040;-74
2024/01/21 05:39:43;;;;;;;7.35;4.85;;;;;;;;;;5048167;28;20155;-74
2024/01/21 05:42:09;;;;;;;6.78;5.40;;;;;;;;;;5050286;28;20107;-74
2024/01/21 05:44:35;;;;;;;9.48;5.28;;;;;;;;;;5051802;28;20031;-74
2024/01/21 05:47:01;;;;;;;7.03;4.53;;;;;;;;;;5033081;28;20021;-74
2024/01/21 05:49:28;;;;;;;7.10;5.13;;;;;;;;;;5049578;28;20902;-74
2024/01/21 05:51:54;;;;;;;6.80;4.97;;;;;;;;;;5050388;28;20124;-74
2024/01/21 05:54:20;;;;;;;7.50;5.28;;;;;;;;;;5051178;28;20092;-73
2024/01/21 05:56:46;;;;;;;7.63;5.40;;;;;;;;;;5048422;28;20017;-74
2024/01/21 05:59:16;;;;;;;6.68;4.82;;;;;;;;;;5045654;28;20013;-74
2024/01/21 06:01:42;;;;;;;7.60;5.10;;;;;;;;;;5049554;28;20013;-74
2024/01/21 06:04:08;;;;;;;7.50;5.18;;;;;;;;;;5045887;28;20026;-73
2024/01/21 06:06:34;;;;;;;8.27;5.43;;;;;;;;;;5029715;28;20063;-73
2024/01/21 06:09:00;;;;;;;7.72;4.88;;;;;;;;;;5031348;28;20017;-73
2024/01/21 06:11:26;;;;;;;8.35;5.65;;;;;;;;;;5050779;28;20032;-74
2024/01/21 06:13:52;;;;;;;7.97;5.63;;;;;;;;;;5049857;28;20091;-74
2024/01/21 06:16:18;;;;;;;7.25;5.47;;;;;;;;;;5029716;28;20522;-73
2024/01/21 06:18:44;;;;;;;6.93;5.07;;;;;;;;;;5030926;28;20074;-73
2024/01/21 06:21:10;;;;;;;7.85;5.68;;;;;;;;;;5050145;28;20511;-74
2024/01/21 06:23:37;;;;;;;7.93;5.65;;;;;;;;;;5049534;28;20017;-73
2024/01/21 06:26:03;;;;;;;7.63;5.60;;;;;;;;;;5032496;28;20029;-74
2024/01/21 06:28:29;;;;;;;9.70;6.00;;;;;;;;;;5029137;28;20037;-73
2024/01/21 06:30:55;;;;;;;6.47;5.25;;;;;;;;;;5047452;28;20033;-75
2024/01/21 06:33:21;;;;;;;7.78;5.70;;;;;;;;;;5050402;28;20028;-76
2024/01/21 06:35:47;;;;;;;8.32;5.63;;;;;;;;;;5035738;28;20016;-76
2024/01/21 06:38:13;;;;;;;8.25;5.47;;;;;;;;;;5028193;28;20010;-75
2024/01/21 06:40:39;;;;;;;7.90;5.82;;;;;;;;;;5041209;28;20024;-75
2024/01/21 06:43:05;;;;;;;8.52;6.10;;;;;;;;;;5048929;28;20551;-76
2024/01/21 06:45:31;;;;;;;8.20;6.10;;;;;;;;;;5041560;28;20055;-75
2024/01/21 06:47:57;;;;;;;10.15;5.72;;;;;;;;;;5038849;28;20440;-75
2024/01/21 06:50:23;;;;;;;9.05;6.00;;;;;;;;;;5041943;28;20044;-77
2024/01/21 06:52:49;;;;;;;8.15;6.07;;;;;;;;;;5028957;28;20055;-77
2024/01/21 06:55:15;;;;;;;9.48;6.30;;;;;;;;;;5034354;28;20017;-76
2024/01/21 06:57:41;;;;;;;8.75;6.25;;;;;;;;;;5048888;28;20423;-74
2024/01/21 07:00:07;;;;;;;7.95;5.90;;;;;;;;;;5048271;28;20017;-75
2024/01/21 07:02:33;;;;;;;9.60;6.32;;;;;;;;;;5048285;28;20021;-75
2024/01/21 07:05:00;;;;;;;8.82;6.10;;;;;;;;;;5049591;28;20079;-75
2024/01/21 07:07:26;;;;;;;10.38;6.68;;;;;;;;;;5049452;28;20013;-75
2024/01/21 07:09:52;;;;;;;9.07;5.90;;;;;;;;;;5047672;28;20017;-75
2024/01/21 07:12:18;;;;;;;9.38;6.63;;;;;;;;;;5048675;28;20093;-75
2024/01/21 07:14:44;;;;;;;9.18;6.20;;;;;;;;;;5047909;28;20099;-75
2024/01/21 07:17:11;;;;;;;10.32;6.57;;;;;;;;;;5045835;28;20005;-75
2024/01/21 07:19:36;;;;;;;10.85;6.93;;;;;;;;;;5049138;28;20417;-75
2024/01/21 07:22:03;;;;;;;9.88;6.65;;;;;;;;;;5033852;28;20017;-75
2024/01/21 07:24:29;;;;;;;9.82;6.80;;;;;;;;;;5047725;28;20253;-75
2024/01/21 07:26:55;;;;;;;10.10;6.97;;;;;;;;;;5048702;28;20067;-76
2024/01/21 07:29:21;;;;;;;10.07;6.90;;;;;;;;;;5047681;28;20091;-75
2024/01/21 07:31:47;;;;;;;9.45;7.22;;;;;;;;;;5048250;28;20611;-75
2024/01/21 07:34:13;;;;;;;10.18;6.97;;;;;;;;;;5046783;28;20501;-75
2024/01/21 07:36:39;;;;;;;10.50;7.05;;;;;;;;;;5047219;28;20021;-75
2024/01/21 07:39:05;;;;;;;9.07;6.88;;;;;;;;;;5044715;28;20462;-76
2024/01/21 07:41:32;;;;;;;11.13;7.18;;;;;;;;;;5047624;28;20028;-75
2024/01/21 07:43:58;;;;;;;9.75;7.25;;;;;;;;;;5046793;28;20256;-74
2024/01/21 07:46:24;;;;;;;11.90;8.02;;;;;;;;;;5046386;28;20091;-75
2024/01/21 07:48:50;;;;;;;10.57;7.55;;;;;;;;;;5048129;28;20420;-75
2024/01/21 07:51:20;;;;;;;10.60;7.75;;;;;;;;;;5035728;28;20055;-75
2024/01/21 07:53:46;;;;;;;12.43;7.95;;;;;;;;;;5042952;28;20465;-74
2024/01/21 07:56:15;;;;;;;10.02;7.53;;;;;;;;;;5047673;28;20453;-75
2024/01/21 07:58:41;;;;;;;11.50;7.65;;;;;;;;;;5048339;28;20013;-75
2024/01/21 08:01:11;;;;;;;11.82;7.45;;;;;;;;;;5046689;28;20067;-74
2024/01/21 08:03:37;;;;;;;12.50;7.88;;;;;;;;;;5048358;28;20024;-75
2024/01/21 08:06:04;;;;;;;10.60;7.63;;;;;;;;;;5043344;28;20380;-75
2024/01/21 08:08:30;;;;;;;11.93;7.93;;;;;;;;;;5046684;28;20037;-76
2024/01/21 08:10:57;;;;;;;12.98;7.90;;;;;;;;;;5047239;28;20477;-75
2024/01/21 08:13:23;;;;;;;10.60;7.80;;;;;;;;;;5046517;28;20020;-75
2024/01/21 08:15:48;;;;;;;11.70;7.88;;;;;;;;;;5044609;28;20010;-75
2024/01/21 08:18:18;;;;;;;15.02;8.48;;;;;;;;;;5046205;28;20321;-75
2024/01/21 08:20:44;;;;;;;11.73;8.10;;;;;;;;;;5044230;28;20017;-75
2024/01/21 08:23:10;;;;;;;11.32;8.32;;;;;;;;;;5048145;28;20329;-76
2024/01/21 08:25:36;;;;;;;11.68;8.27;;;;;;;;;;5046943;28;20060;-76
2024/01/21 08:28:02;;;;;;;11.40;8.35;;;;;;;;;;5046100;28;20441;-76
2024/01/21 08:30:28;;;;;;;11.25;8.07;;;;;;;;;;5045498;28;20083;-76
2024/01/21 08:32:54;;;;;;;11.15;8.73;;;;;;;;;;5038525;28;20053;-76
2024/01/21 08:35:21;;;;;;;13.20;9.23;;;;;;;;;;5039497;28;20017;-74
2024/01/21 08:37:50;;;;;;;10.35;8.30;;;;;;;;;;5044984;28;20036;-76
2024/01/21 08:40:16;;;;;;;12.43;8.70;;;;;;;;;;5046324;28;20052;-77
2024/01/21 08:42:42;;;;;;;10.57;8.20;;;;;;;;;;5046200;28;20111;-77
2024/01/21 08:45:09;;;;;;;11.98;8.63;;;;;;;;;;5047968;28;20035;-76
2024/01/21 08:47:35;;;;;;;10.00;7.75;;;;;;;;;;5045940;28;20291;-76
2024/01/21 08:50:01;;;;;;;12.20;8.27;;;;;;;;;;5038907;28;20094;-76
2024/01/21 08:52:27;;;;;;;12.40;8.48;;;;;;;;;;5048083;28;20047;-76
2024/01/21 08:54:53;;;;;;;11.48;7.88;;;;;;;;;;5047200;28;20027;-77
2024/01/21 08:57:19;;;;;;;11.88;8.55;;;;;;;;;;5035127;28;20112;-77
2024/01/21 08:59:45;;;;;;;12.77;8.80;;;;;;;;;;5035176;28;20052;-77
2024/01/21 09:02:11;;;;;;;11.38;8.75;;;;;;;;;;5043265;28;20105;-76
2024/01/21 09:04:40;;;;;;;14.15;8.27;;;;;;;;;;5042267;28;20119;-77
2024/01/21 09:07:07;;;;;;;11.65;8.10;;;;;;;;;;5037170;28;20101;-76
2024/01/21 09:09:33;;;;;;;11.40;8.88;;;;;;;;;;5045791;28;20029;-76
2024/01/21 09:11:59;;;;;;;13.80;8.93;;;;;;;;;;5048432;28;20013;-76
2024/01/21 09:14:25;;;;;;;11.52;8.38;;;;;;;;;;5047879;28;20025;-78
2024/01/21 09:16:52;;;;;;;13.35;8.13;;;;;;;;;;5046731;28;20060;-76
2024/01/21 09:19:18;;;;;;;12.85;8.27;;;;;;;;;;5048003;28;20020;-77
2024/01/21 09:21:44;;;;;;;12.10;9.13;;;;;;;;;;5047152;28;20116;-79
2024/01/21 09:24:11;;;;;;;12.02;8.40;;;;;;;;;;5047062;28;20025;-79
2024/01/21 09:26:37;;;;;;;13.50;8.27;;;;;;;;;;5048181;28;20053;-78
2024/01/21 09:29:03;;;;;;;11.40;8.52;;;;;;;;;;5046350;28;20033;-77
2024/01/21 09:31:30;;;;;;;12.55;9.00;;;;;;;;;;5047918;28;20026;-77
2024/01/21 09:33:58;;;;;;;14.98;9.23;;;;;;;;;;5046410;28;20504;-79
2024/01/21 09:36:24;;;;;;;14.63;8.23;;;;;;;;;;5046810;28;20075;-77
2024/01/21 09:38:54;;;;;;;13.48;8.57;;;;;;;;;;5043350;28;20237;-77
2024/01/21 09:41:26;;;;;;;12.20;9.00;;;;;;;;;;5039619;28;20112;-79
2024/01/21 09:43:52;;;;;;;13.02;8.48;;;;;;;;;;5046229;28;20033;-78
2024/01/21 09:46:18;;;;;;;12.70;8.65;;;;;;;;;;5048306;28;20025;-77
2024/01/21 09:48:45;;;;;;;11.85;8.43;;;;;;;;;;5046182;28;20036;-75
2024/01/21 09:51:11;;;;;;;11.48;8.10;;;;;;;;;;5046905;28;20025;-77
2024/01/21 09:53:37;;;;;;;12.00;8.52;;;;;;;;;;5047949;28;20492;-78
2024/01/21 09:56:10;;;;;;;14.10;9.10;;;;;;;;;;5047680;28;20166;-77
2024/01/21 09:58:55;;;;;;;12.40;8.77;;;;;;;;;;5047276;28;20025;-80
2024/01/21 10:01:22;;;;;;;13.38;9.07;;;;;;;;;;5046261;28;20021;-79
2024/01/21 10:03:48;;;;;;;12.52;9.63;;;;;;;;;;5046806;28;20111;-76
2024/01/21 10:06:14;;;;;;;12.68;8.90;;;;;;;;;;5047306;28;20454;-78
2024/01/21 10:08:42;;;;;;;13.13;8.40;;;;;;;;;;5046912;28;20758;-77
2024/01/21 10:11:08;;;;;;;14.30;8.57;;;;;;;;;;5047100;28;20022;-76
2024/01/21 10:13:38;;;;;;;13.68;8.75;;;;;;;;;;5050087;28;20052;-77
2024/01/21 10:16:04;;;;;;;12.35;9.02;;;;;;;;;;5050263;28;20020;-76
2024/01/21 10:18:30;;;;;;;13.05;8.95;;;;;;;;;;5051361;28;20048;-76
2024/01/21 10:20:59;;;;;;;12.15;8.73;;;;;;;;;;5051269;28;20013;-77
2024/01/21 10:23:25;;;;;;;14.40;9.65;;;;;;;;;;5049920;28;20173;-76
2024/01/21 10:25:51;;;;;;;14.45;9.48;;;;;;;;;;5050374;28;20017;-76
2024/01/21 10:28:17;;;;;;;14.63;9.40;;;;;;;;;;5044303;28;20052;-76
2024/01/21 10:30:47;;;;;;;11.73;8.90;;;;;;;;;;5030671;28;20025;-76
2024/01/21 10:33:13;;;;;;;11.52;8.65;;;;;;;;;;5040833;28;20009;-76
2024/01/21 10:35:40;;;;;;;12.65;8.75;;;;;;;;;;5030747;28;20052;-77
2024/01/21 10:38:13;;;;;;;13.75;9.57;;;;;;;;;;5029742;28;20071;-76
2024/01/21 10:40:43;;;;;;;13.65;9.30;;;;;;;;;;5048435;28;20017;-77
2024/01/21 10:43:16;;;;;;;12.05;8.98;;;;;;;;;;5047776;28;20503;-76
2024/01/21 10:45:44;;;;;;;15.13;8.75;;;;;;;;;;5029021;28;20383;-76
2024/01/21 10:48:11;;;;;;;12.93;8.70;;;;;;;;;;5030160;28;20072;-76
2024/01/21 10:50:41;;;;;;;12.45;8.82;;;;;;;;;;5047545;28;20058;-76
2024/01/21 10:53:07;;;;;;;13.45;9.10;;;;;;;;;;5048723;28;20020;-76
2024/01/21 10:55:34;;;;;;;13.82;9.13;;;;;;;;;;5030691;28;20419;-76
2024/01/21 10:58:00;;;;;;;12.48;8.68;;;;;;;;;;5028714;28;20485;-77
2024/01/21 11:00:27;;;;;;;11.43;8.50;;;;;;;;;;5045243;28;20025;-77
2024/01/21 11:03:12;;;;;;;14.13;9.20;;;;;;;;;;5048335;28;20488;-76
2024/01/21 11:05:38;;;;;;;16.08;9.13;;;;;;;;;;5030149;28;20029;-76
2024/01/21 11:08:04;;;;;;;13.60;9.18;;;;;;;;;;5028324;28;20022;-76
2024/01/21 11:10:30;;;;;;;14.40;9.18;;;;;;;;;;5046215;28;20025;-77
2024/01/21 11:12:59;;;;;;;14.05;9.02;;;;;;;;;;5048285;28;20067;-76
2024/01/21 11:15:32;;;;;;;15.65;9.43;;;;;;;;;;5032226;28;20090;-76
2024/01/21 11:18:11;;;;;;;13.05;9.13;;;;;;;;;;5028800;28;20028;-76
2024/01/21 11:20:39;;;;;;;13.57;8.90;;;;;;;;;;5047414;28;20087;-76
2024/01/21 11:23:14;;;;;;;13.52;8.70;;;;;;;;;;5048019;28;20311;-76
2024/01/21 11:25:49;;;;;;;12.63;8.77;;;;;;;;;;5033977;28;20380;-76
2024/01/21 11:28:34;;;;;;;13.20;9.07;;;;;;;;;;5046062;28;20048;-76
2024/01/21 11:31:06;;;;;;;14.30;8.95;;;;;;;;;;5040854;28;20559;-76
2024/01/21 11:33:32;;;;;;;14.70;9.10;;;;;;;;;;5045989;28;20029;-77
2024/01/21 11:36:00;;;;;;;14.55;9.40;;;;;;;;;;5049177;28;20092;-76
2024/01/21 11:38:26;;;;;;;15.10;10.00;;;;;;;;;;5048085;28;20009;-76
2024/01/21 11:41:03;;;;;;;14.38;9.88;;;;;;;;;;5043796;28;20308;-76
2024/01/21 11:43:31;;;;;;;13.75;9.50;;;;;;;;;;5048177;28;20013;-77
2024/01/21 11:45:57;;;;;;;17.23;10.05;;;;;;;;;;5045879;28;20272;-76
2024/01/21 11:48:30;;;;;;;14.13;9.75;;;;;;;;;;5047118;28;20036;-76
2024/01/21 11:50:56;;;;;;;14.00;9.43;;;;;;;;;;5047080;28;20508;-76
2024/01/21 11:53:22;;;;;;;14.82;9.70;;;;;;;;;;5049448;28;20025;-76
2024/01/21 11:55:49;;;;;;;16.70;10.32;;;;;;;;;;5035413;28;20020;-76
2024/01/21 11:58:15;;;;;;;16.20;10.07;;;;;;;;;;5047467;28;20051;-76
2024/01/21 12:00:41;;;;;;;17.08;10.38;;;;;;;;;;5045020;28;20189;-76
2024/01/21 12:03:07;;;;;;;16.65;10.05;;;;;;;;;;5048050;28;20017;-77
2024/01/21 12:05:36;;;;;;;15.02;9.05;;;;;;;;;;5047629;28;20084;-76
2024/01/21 12:08:02;;;;;;;14.55;9.25;;;;;;;;;;5047629;28;20043;-76
2024/01/21 12:10:29;;;;;;;15.90;10.30;;;;;;;;;;5038562;28;20453;-76
2024/01/21 12:12:55;;;;;;;16.48;10.48;;;;;;;;;;5029437;28;20493;-76
2024/01/21 12:15:21;;;;;;;15.10;9.77;;;;;;;;;;5036376;28;20013;-83
2024/01/21 12:17:54;;;;;;;15.07;9.38;;;;;;;;;;5034321;28;20028;-83
2024/01/21 12:20:20;;;;;;;16.20;10.38;;;;;;;;;;5046764;28;20441;-78
2024/01/21 12:22:48;;;;;;;15.73;10.30;;;;;;;;;;5047916;28;20499;-78
2024/01/21 12:25:14;;;;;;;18.13;11.10;;;;;;;;;;5048779;28;20465;-77
2024/01/21 12:27:46;;;;;;;16.92;10.70;;;;;;;;;;5047004;28;20056;-77
2024/01/21 12:30:13;;;;;;;15.65;9.68;;;;;;;;;;5046603;28;20025;-79
2024/01/21 12:32:40;;;;;;;16.50;9.60;;;;;;;;;;5037920;28;20049;-80
2024/01/21 12:35:07;;;;;;;16.15;9.98;;;;;;;;;;5039021;28;20072;-79
2024/01/21 12:37:33;;;;;;;13.20;9.35;;;;;;;;;;5046668;28;20087;-78
2024/01/21 12:40:00;;;;;;;16.58;10.25;;;;;;;;;;5043642;28;20488;-77
2024/01/21 12:42:26;;;;;;;15.90;9.77;;;;;;;;;;5028467;28;20021;-77
2024/01/21 12:44:53;;;;;;;18.23;10.90;;;;;;;;;;5030271;28;20451;-78
2024/01/21 12:47:22;;;;;;;13.95;9.73;;;;;;;;;;5046818;28;20224;-78
2024/01/21 12:49:48;;;;;;;16.92;10.05;;;;;;;;;;5046132;28;20052;-78
2024/01/21 12:52:14;;;;;;;15.45;10.15;;;;;;;;;;5048073;28;20055;-78
2024/01/21 12:54:40;;;;;;;14.52;10.15;;;;;;;;;;5047004;28;20017;-77
2024/01/21 12:57:06;;;;;;;19.60;10.52;;;;;;;;;;5047103;28;20087;-78
2024/01/21 12:59:32;;;;;;;14.25;9.52;;;;;;;;;;5046093;28;20389;-78
2024/01/21 13:01:58;;;;;;;13.98;9.13;;;;;;;;;;5046455;28;20087;-77
2024/01/21 13:04:24;;;;;;;15.75;9.73;;;;;;;;;;5046917;28;20108;-77
2024/01/21 13:06:50;;;;;;;15.93;9.55;;;;;;;;;;5029253;28;20052;-77
2024/01/21 13:09:16;;;;;;;16.20;10.27;;;;;;;;;;5029800;28;20037;-76
2024/01/21 13:11:42;;;;;;;14.88;9.23;;;;;;;;;;5043228;28;20251;-77
2024/01/21 13:14:08;;;;;;;15.57;9.15;;;;;;;;;;5034374;28;20017;-76
2024/01/21 13:16:34;;;;;;;17.80;10.90;;;;;;;;;;5043622;28;20064;-77
2024/01/21 13:19:03;;;;;;;17.90;10.70;;;;;;;;;;5039056;28;20296;-77
2024/01/21 13:21:29;;;;;;;17.95;11.52;;;;;;;;;;5036565;28;20116;-77
2024/01/21 13:23:56;;;;;;;18.85;11.55;;;;;;;;;;5043713;28;20025;-77
2024/01/21 13:26:22;;;;;;;17.83;10.30;;;;;;;;;;5047859;28;20056;-81
2024/01/21 13:31:34;;;;;;;15.07;9.70;;;;;;;;;;5036159;28;20032;-79
2024/01/21 13:34:01;;;;;;;13.98;10.18;;;;;;;;;;5037591;28;20021;-78
2024/01/21 13:36:28;;;;;;;15.80;10.23;;;;;;;;;;5046195;28;20009;-81
2024/01/21 13:38:54;;;;;;;15.18;9.60;;;;;;;;;;5048100;28;20063;-80
2024/01/21 13:41:20;;;;;;;18.83;9.63;;;;;;;;;;5046500;28;20525;-81
2024/01/21 13:43:46;;;;;;;14.77;9.48;;;;;;;;;;5034355;28;20061;-81
2024/01/21 13:46:12;;;;;;;14.13;9.15;;;;;;;;;;5048336;28;20029;-80
2024/01/21 13:48:38;;;;;;;16.90;9.05;;;;;;;;;;5038751;28;20077;-80
2024/01/21 13:51:06;;;;;;;16.95;9.70;;;;;;;;;;5045520;28;20025;-80
2024/01/21 13:53:32;;;;;;;16.65;9.70;;;;;;;;;;5040820;28;20031;-81
2024/01/21 13:55:58;;;;;;;12.70;8.48;;;;;;;;;;5050861;28;20025;-81
2024/01/21 13:58:24;;;;;;;14.50;9.43;;;;;;;;;;5047460;28;20053;-80
2024/01/21 14:00:50;;;;;;;15.30;9.23;;;;;;;;;;5049696;28;20466;-81
2024/01/21 14:03:17;;;;;;;14.73;8.88;;;;;;;;;;5049149;28;20021;-81
2024/01/21 14:05:43;;;;;;;15.13;9.50;;;;;;;;;;5049940;28;20086;-81
2024/01/21 14:08:10;;;;;;;18.92;9.85;;;;;;;;;;5051416;28;20025;-81
2024/01/21 14:10:36;;;;;;;16.23;8.43;;;;;;;;;;5050197;28;20033;-81
2024/01/21 14:13:02;;;;;;;14.20;8.65;;;;;;;;;;5051438;28;20071;-81
2024/01/21 14:15:28;;;;;;;14.80;8.23;;;;;;;;;;5049415;28;20021;-81
2024/01/21 14:17:54;;;;;;;14.95;8.93;;;;;;;;;;5046685;28;20024;-81
2024/01/21 14:20:20;;;;;;;18.77;9.63;;;;;;;;;;5040534;28;20071;-81
2024/01/21 14:22:46;;;;;;;17.35;9.95;;;;;;;;;;5039698;28;20524;-81
2024/01/21 14:25:18;;;;;;;17.13;9.52;;;;;;;;;;5045607;28;20025;-81
2024/01/21 14:27:44;;;;;;;15.18;9.43;;;;;;;;;;5041618;28;20071;-80
2024/01/21 14:30:16;;;;;;;16.65;8.90;;;;;;;;;;5044420;28;20017;-80